Time;durP1;ratioP1;P1;durP2;ratioP2;P2;SDS_P1;SDS_P2;PMS_P1;PMS_P2;Temp;Humidity;BMP_temperature;BMP_pressure;BME280_temperature;BME280_humidity;BME280_pressure;Samples;Min_cycle;Max_cycle;Signal;HPM_P1;HPM_P2
2022/03/13 00:00:10;;;;;;;36.65;20.40;;;;;;;-2.71;100.00;101446.75;5050794;28;20090;-66
2022/03/13 00:02:36;;;;;;;46.17;22.38;;;;;;;-2.42;100.00;101413.31;5050043;28;20106;-66
2022/03/13 00:05:01;;;;;;;26.98;17.15;;;;;;;-2.69;100.00;101470.06;5050560;28;20029;-67
2022/03/13 00:07:28;;;;;;;26.40;17.10;;;;;;;-2.53;100.00;101470.78;5032592;28;20051;-67
2022/03/13 00:09:53;;;;;;;27.52;18.17;;;;;;;-2.50;100.00;101436.97;5050453;28;20025;-67
2022/03/13 00:12:26;;;;;;;31.05;19.23;;;;;;;-3.28;100.00;101468.72;5050303;28;20028;-66
2022/03/13 00:14:55;;;;;;;33.72;21.90;;;;;;;-2.66;100.00;101435.41;5050193;28;20025;-65
2022/03/13 00:17:21;;;;;;;35.65;22.35;;;;;;;-2.99;100.00;101430.41;5050352;28;20062;-66
2022/03/13 00:19:47;;;;;;;40.78;26.27;;;;;;;-1.99;100.00;101453.50;5050538;28;20033;-67
2022/03/13 00:22:13;;;;;;;98.30;54.42;;;;;;;-2.68;100.00;101423.66;5050335;28;20025;-67
2022/03/13 00:24:38;;;;;;;85.63;50.50;;;;;;;-2.68;100.00;101416.19;5049986;28;20041;-67
2022/03/13 00:27:05;;;;;;;55.20;32.60;;;;;;;-2.79;100.00;101433.09;5050249;28;20032;-66
2022/03/13 00:29:30;;;;;;;45.17;28.50;;;;;;;-3.00;100.00;101443.63;5049988;28;20406;-67
2022/03/13 00:31:56;;;;;;;40.90;25.45;;;;;;;-2.69;100.00;101422.78;5050159;28;20331;-67
2022/03/13 00:34:22;;;;;;;36.58;23.00;;;;;;;-2.60;100.00;101414.06;5050317;28;20454;-67
2022/03/13 00:36:47;;;;;;;27.25;16.63;;;;;;;-2.43;100.00;101434.00;5050241;28;20029;-67
2022/03/13 00:39:13;;;;;;;29.52;18.33;;;;;;;-2.63;100.00;101449.59;5050042;28;20099;-67
2022/03/13 00:41:38;;;;;;;31.67;18.25;;;;;;;-2.72;100.00;101422.66;5049947;28;20029;-67
2022/03/13 00:44:05;;;;;;;29.60;16.90;;;;;;;-2.94;100.00;101419.03;5049966;28;20025;-67
2022/03/13 00:46:31;;;;;;;25.83;15.20;;;;;;;-2.90;100.00;101451.63;5050118;28;20554;-68
2022/03/13 00:48:57;;;;;;;26.52;15.55;;;;;;;-2.53;100.00;101441.81;5049897;28;20108;-67
2022/03/13 00:51:22;;;;;;;23.55;15.55;;;;;;;-3.14;100.00;101410.59;5050337;28;20061;-67
2022/03/13 00:53:48;;;;;;;21.70;15.20;;;;;;;-2.74;100.00;101398.47;5050085;28;20507;-67
2022/03/13 00:56:14;;;;;;;22.75;14.90;;;;;;;-3.07;100.00;101444.09;5050145;28;20040;-67
2022/03/13 00:58:40;;;;;;;24.40;14.73;;;;;;;-2.92;100.00;101405.06;5049842;28;20060;-67
2022/03/13 01:03:44;;;;;;;22.77;14.13;;;;;;;-3.00;100.00;101441.13;4078820;28;10000737;-67
2022/03/13 01:06:09;;;;;;;24.73;14.65;;;;;;;-3.12;100.00;101416.50;5033260;28;20038;-67
2022/03/13 01:08:35;;;;;;;24.70;15.27;;;;;;;-3.04;100.00;101419.38;5033456;28;20025;-68
2022/03/13 01:11:03;;;;;;;23.77;14.45;;;;;;;-2.76;100.00;101390.09;5015422;28;20476;-67
2022/03/13 01:13:30;;;;;;;18.30;12.82;;;;;;;-3.13;100.00;101401.53;5033526;28;20033;-67
2022/03/13 01:16:12;;;;;;;18.70;12.02;;;;;;;-3.61;100.00;101447.97;5033550;28;20037;-66
2022/03/13 01:18:49;;;;;;;23.35;14.30;;;;;;;-3.40;100.00;101422.50;5033429;28;20037;-67
2022/03/13 01:21:16;;;;;;;19.98;12.77;;;;;;;-3.30;100.00;101432.13;5033143;28;20853;-67
2022/03/13 01:24:13;;;;;;;19.17;12.35;;;;;;;-3.49;100.00;101404.66;5048567;28;20034;-67
2022/03/13 01:26:40;;;;;;;17.23;10.60;;;;;;;-2.97;100.00;101439.63;5025441;28;20041;-68
2022/03/13 01:29:08;;;;;;;16.90;10.55;;;;;;;-3.43;100.00;101400.84;5033265;28;20088;-67
2022/03/13 01:31:38;;;;;;;16.00;10.95;;;;;;;-3.47;100.00;101433.78;5033109;28;20109;-67
2022/03/13 01:34:06;;;;;;;18.25;11.55;;;;;;;-3.45;100.00;101404.88;5032648;28;20037;-67
2022/03/13 01:36:32;;;;;;;14.98;10.27;;;;;;;-3.52;100.00;101427.69;5033097;28;20022;-67
2022/03/13 01:38:59;;;;;;;14.35;9.63;;;;;;;-3.34;100.00;101425.28;5032985;28;20084;-67
2022/03/13 01:41:29;;;;;;;14.98;10.15;;;;;;;-3.53;100.00;101431.81;5033139;28;20491;-67
2022/03/13 01:43:59;;;;;;;16.20;10.32;;;;;;;-3.51;100.00;101430.25;5033015;28;20037;-67
2022/03/13 01:46:25;;;;;;;15.80;10.23;;;;;;;-3.71;100.00;101430.88;5032712;28;20614;-67
2022/03/13 01:49:05;;;;;;;18.73;11.98;;;;;;;-3.32;100.00;101389.81;5032920;28;20033;-67
2022/03/13 01:51:32;;;;;;;17.25;11.70;;;;;;;-3.69;100.00;101411.09;5032897;28;20029;-68
2022/03/13 01:54:02;;;;;;;18.42;11.80;;;;;;;-3.70;100.00;101382.91;5032785;28;20084;-66
2022/03/13 01:56:29;;;;;;;17.45;11.63;;;;;;;-3.67;100.00;101393.00;5031884;28;20052;-67
2022/03/13 01:58:56;;;;;;;17.25;10.85;;;;;;;-3.17;100.00;101420.38;5032550;28;20108;-67
2022/03/13 02:01:24;;;;;;;18.23;11.50;;;;;;;-3.78;100.00;101386.59;5032732;28;20088;-67
2022/03/13 02:03:50;;;;;;;16.65;11.18;;;;;;;-3.28;100.00;101420.63;5050936;28;20049;-67
2022/03/13 02:06:17;;;;;;;18.98;12.05;;;;;;;-3.29;100.00;101399.06;5052619;28;20025;-67
2022/03/13 02:08:44;;;;;;;16.95;10.88;;;;;;;-4.15;100.00;101392.06;5052317;28;20075;-67
2022/03/13 02:11:14;;;;;;;17.85;11.32;;;;;;;-3.95;100.00;101422.13;5052108;28;20033;-67
2022/03/13 02:13:40;;;;;;;16.08;10.55;;;;;;;-3.63;100.00;101429.66;5033351;28;20475;-67
2022/03/13 02:16:06;;;;;;;17.92;11.98;;;;;;;-3.78;100.00;101388.22;5052410;28;20060;-67
2022/03/13 02:18:32;;;;;;;18.33;12.10;;;;;;;-4.04;100.00;101356.25;5052447;28;20406;-67
2022/03/13 02:20:58;;;;;;;18.30;11.52;;;;;;;-3.83;100.00;101389.63;5052223;28;20033;-67
2022/03/13 02:23:25;;;;;;;21.55;11.90;;;;;;;-4.33;100.00;101354.72;5051620;28;20035;-68
2022/03/13 02:25:57;;;;;;;17.50;11.43;;;;;;;-4.22;100.00;101363.59;5052267;28;20033;-67
2022/03/13 02:28:27;;;;;;;12.63;8.18;;;;;;;-4.10;100.00;101418.81;5033909;28;20123;-67
2022/03/13 02:30:57;;;;;;;12.97;8.50;;;;;;;-4.37;100.00;101414.84;5033845;28;20082;-67
2022/03/13 02:33:23;;;;;;;19.80;11.15;;;;;;;-4.06;100.00;101410.75;5051741;28;20513;-68
2022/03/13 02:36:00;;;;;;;16.48;11.18;;;;;;;-4.07;100.00;101386.72;5051672;28;20029;-67
2022/03/13 02:38:27;;;;;;;19.70;11.48;;;;;;;-3.77;100.00;101409.81;5051768;28;20418;-67
2022/03/13 02:40:54;;;;;;;19.02;11.43;;;;;;;-3.90;100.00;101387.63;5051646;28;20037;-67
2022/03/13 02:43:19;;;;;;;19.15;12.15;;;;;;;-4.05;100.00;101412.50;5051536;28;21440;-67
2022/03/13 02:45:45;;;;;;;22.92;13.38;;;;;;;-3.71;100.00;101383.69;5051556;28;20119;-67
2022/03/13 02:48:12;;;;;;;32.47;17.60;;;;;;;-3.98;100.00;101387.19;5033524;28;20472;-67
2022/03/13 02:50:38;;;;;;;29.25;16.80;;;;;;;-3.54;100.00;101405.25;5051209;28;20529;-67
2022/03/13 02:53:04;;;;;;;27.65;15.50;;;;;;;-3.28;100.00;101415.66;5051601;28;20021;-66
2022/03/13 02:55:29;;;;;;;28.23;17.52;;;;;;;-3.84;100.00;101388.78;5033441;28;20044;-67
2022/03/13 02:57:56;;;;;;;26.08;15.82;;;;;;;-3.47;100.00;101416.38;5033582;28;20033;-68
2022/03/13 03:00:38;;;;;;;23.70;14.95;;;;;;;-3.71;100.00;101418.47;5051310;28;20422;-67
2022/03/13 03:03:04;;;;;;;19.38;12.15;;;;;;;-3.82;100.00;101397.16;5051026;28;20049;-67
2022/03/13 03:05:31;;;;;;;19.00;12.25;;;;;;;-4.21;100.00;101422.38;5050982;28;20560;-67
2022/03/13 03:07:57;;;;;;;18.23;12.02;;;;;;;-4.33;100.00;101383.63;5051353;28;20020;-68
2022/03/13 03:10:22;;;;;;;16.38;11.50;;;;;;;-3.85;100.00;101423.47;5033354;28;20033;-68
2022/03/13 03:12:48;;;;;;;17.05;11.32;;;;;;;-3.55;100.00;101416.00;5033177;28;20509;-67
2022/03/13 03:15:18;;;;;;;17.30;11.70;;;;;;;-4.43;100.00;101377.31;5050842;28;20033;-67
2022/03/13 03:17:43;;;;;;;17.33;11.30;;;;;;;-3.91;100.00;101414.06;5050991;28;20094;-66
2022/03/13 03:20:11;;;;;;;18.08;11.63;;;;;;;-4.38;100.00;101410.69;5050825;28;20486;-67
2022/03/13 03:22:36;;;;;;;17.33;11.48;;;;;;;-4.58;100.00;101394.72;5033042;28;20491;-67
2022/03/13 03:25:03;;;;;;;16.52;11.32;;;;;;;-3.88;100.00;101405.94;5051200;28;20025;-67
2022/03/13 03:27:30;;;;;;;16.85;11.05;;;;;;;-4.41;100.00;101405.53;5051106;28;20043;-66
2022/03/13 03:29:56;;;;;;;16.10;10.48;;;;;;;-3.71;100.00;101397.72;5051068;28;20025;-67
2022/03/13 03:32:21;;;;;;;17.05;10.23;;;;;;;-4.06;100.00;101367.72;5050840;28;20025;-67
2022/03/13 03:34:47;;;;;;;18.20;11.15;;;;;;;-3.96;100.00;101400.53;5050592;28;20029;-66
2022/03/13 03:37:12;;;;;;;15.18;10.05;;;;;;;-4.26;100.00;101403.03;5050949;28;20025;-66
2022/03/13 03:39:38;;;;;;;18.05;11.25;;;;;;;-4.33;100.00;101393.53;5033052;28;20033;-67
2022/03/13 03:42:03;;;;;;;16.25;10.65;;;;;;;-4.04;100.00;101405.91;5050552;28;20605;-67
2022/03/13 03:44:29;;;;;;;17.10;11.00;;;;;;;-4.13;100.00;101391.38;5050812;28;20115;-67
2022/03/13 03:46:55;;;;;;;16.48;10.45;;;;;;;-4.10;100.00;101394.00;5050742;28;20119;-67
2022/03/13 03:49:20;;;;;;;16.95;10.63;;;;;;;-4.79;100.00;101395.97;5050273;28;20024;-67
2022/03/13 03:51:46;;;;;;;15.48;10.65;;;;;;;-4.46;100.00;101401.97;5050710;28;20162;-67
2022/03/13 03:54:12;;;;;;;17.33;11.55;;;;;;;-4.42;100.00;101392.28;5050521;28;20029;-67
2022/03/13 03:56:37;;;;;;;19.27;12.30;;;;;;;-4.38;100.00;101367.66;5051034;28;20513;-66
2022/03/13 03:59:04;;;;;;;22.42;14.75;;;;;;;-4.62;100.00;101394.44;5032420;28;20025;-67
2022/03/13 04:01:45;;;;;;;21.52;13.05;;;;;;;-4.60;100.00;101375.56;5032516;28;20029;-67
2022/03/13 04:04:10;;;;;;;17.63;10.27;;;;;;;-4.50;100.00;101348.81;5032323;28;20041;-67
2022/03/13 04:06:38;;;;;;;46.83;27.33;;;;;;;-4.53;100.00;101399.91;5050969;28;20036;-67
2022/03/13 04:09:06;;;;;;;50.65;27.42;;;;;;;-4.58;100.00;101366.56;5050573;28;20025;-67
2022/03/13 04:11:32;;;;;;;47.22;25.65;;;;;;;-4.70;100.00;101399.00;5032257;28;20395;-67
2022/03/13 04:13:58;;;;;;;56.60;30.08;;;;;;;-4.43;100.00;101398.03;5050262;28;20028;-67
2022/03/13 04:16:24;;;;;;;53.30;29.65;;;;;;;-4.15;100.00;101399.50;5050122;28;20017;-66
2022/03/13 04:18:49;;;;;;;29.80;16.90;;;;;;;-3.99;100.00;101397.91;5049924;28;20110;-67
2022/03/13 04:21:15;;;;;;;23.92;13.63;;;;;;;-4.18;100.00;101404.31;5050471;28;20033;-67
2022/03/13 04:23:41;;;;;;;19.65;12.25;;;;;;;-4.43;100.00;101402.13;5050409;28;20119;-67
2022/03/13 04:26:06;;;;;;;26.27;16.05;;;;;;;-4.26;100.00;101416.31;5050255;28;20028;-67
2022/03/13 04:28:33;;;;;;;23.77;14.30;;;;;;;-4.83;100.00;101393.28;5050200;28;20029;-67
2022/03/13 04:31:00;;;;;;;27.23;16.90;;;;;;;-4.46;100.00;101406.94;5050339;28;20094;-67
2022/03/13 04:33:33;;;;;;;23.98;15.95;;;;;;;-4.54;100.00;101373.41;5050179;28;20071;-67
2022/03/13 04:36:00;;;;;;;24.88;15.48;;;;;;;-4.25;100.00;101400.63;5050441;28;20032;-67
2022/03/13 04:38:27;;;;;;;23.80;14.40;;;;;;;-4.27;100.00;101399.69;5053001;28;20550;-67
2022/03/13 04:40:54;;;;;;;22.50;13.80;;;;;;;-4.11;100.00;101371.59;5054141;28;20031;-66
2022/03/13 04:43:21;;;;;;;28.25;14.38;;;;;;;-4.28;100.00;101393.03;5054169;28;20029;-68
2022/03/13 04:45:48;;;;;;;24.98;14.20;;;;;;;-4.30;100.00;101409.47;5053284;28;20095;-67
2022/03/13 04:48:14;;;;;;;23.95;14.27;;;;;;;-4.50;100.00;101391.00;5053900;28;20500;-66
2022/03/13 04:50:41;;;;;;;27.58;17.35;;;;;;;-4.40;100.00;101402.31;5035999;28;20029;-65
2022/03/13 04:53:06;;;;;;;30.30;18.83;;;;;;;-3.75;100.00;101399.19;5053763;28;20052;-66
2022/03/13 04:55:32;;;;;;;38.50;22.63;;;;;;;-4.33;100.00;101372.06;5035845;28;20060;-68
2022/03/13 04:57:58;;;;;;;33.13;20.85;;;;;;;-4.27;100.00;101377.38;5053583;28;20025;-66
2022/03/13 05:00:27;;;;;;;25.02;16.50;;;;;;;-3.40;100.00;101386.06;5048823;28;20033;-67
2022/03/13 05:02:54;;;;;;;26.90;15.65;;;;;;;-3.65;100.00;101410.47;5053378;28;20147;-67
2022/03/13 05:05:20;;;;;;;34.38;18.23;;;;;;;-3.54;100.00;101407.75;5053516;28;20494;-67
2022/03/13 05:07:45;;;;;;;36.80;18.70;;;;;;;-3.60;100.00;101395.00;5053490;28;20036;-67
2022/03/13 05:10:11;;;;;;;30.40;16.38;;;;;;;-3.71;100.00;101381.19;5035431;28;20029;-65
2022/03/13 05:12:37;;;;;;;21.38;13.60;;;;;;;-3.01;100.00;101414.56;5053492;28;20045;-70
2022/03/13 05:15:03;;;;;;;28.20;16.50;;;;;;;-0.56;100.00;101379.88;5050245;28;20072;-70
2022/03/13 05:17:29;;;;;;;22.67;14.65;;;;;;;0.67;100.00;101381.09;5035054;28;20024;-69
2022/03/13 05:19:55;;;;;;;23.20;13.18;;;;;;;0.90;100.00;101364.38;5053316;28;20044;-69
2022/03/13 05:22:20;;;;;;;19.50;13.85;;;;;;;0.88;96.44;101355.97;5053207;28;20021;-68
2022/03/13 05:24:46;;;;;;;18.50;11.77;;;;;;;0.24;95.37;101402.06;5035182;28;20036;-69
2022/03/13 05:27:11;;;;;;;19.48;12.98;;;;;;;1.81;86.55;101343.03;5029398;28;20025;-66
2022/03/13 05:29:37;;;;;;;25.48;17.20;;;;;;;0.66;98.09;101411.94;5052712;28;20127;-67
2022/03/13 05:32:03;;;;;;;22.52;14.93;;;;;;;2.48;88.14;101373.34;5053030;28;20033;-67
2022/03/13 05:34:28;;;;;;;18.10;12.73;;;;;;;1.54;88.15;101363.13;5053199;28;20484;-66
2022/03/13 05:36:53;;;;;;;29.58;19.25;;;;;;;1.73;88.98;101375.41;5052669;28;20131;-67
2022/03/13 05:39:19;;;;;;;16.85;11.13;;;;;;;-1.79;100.00;101400.44;5053033;28;20033;-69
2022/03/13 05:41:45;;;;;;;13.40;9.68;;;;;;;-1.41;100.00;101427.03;5034435;28;20033;-70
2022/03/13 05:44:12;;;;;;;14.43;10.27;;;;;;;-1.84;100.00;101427.63;5053026;28;20036;-70
2022/03/13 05:46:38;;;;;;;35.88;19.35;;;;;;;-2.04;100.00;101420.88;5051866;28;20040;-68
2022/03/13 05:49:05;;;;;;;15.40;10.32;;;;;;;-1.51;100.00;101422.44;5052693;28;20033;-68
2022/03/13 05:51:35;;;;;;;21.92;12.40;;;;;;;-1.58;100.00;101405.50;5052549;28;20078;-68
2022/03/13 05:54:00;;;;;;;30.42;16.15;;;;;;;-0.36;100.00;101420.59;5052435;28;20029;-70
2022/03/13 05:56:26;;;;;;;23.25;12.30;;;;;;;-0.56;100.00;101384.88;5034359;28;20033;-69
2022/03/13 05:58:51;;;;;;;16.45;10.38;;;;;;;-1.00;100.00;101408.03;5051550;28;20498;-69
2022/03/13 06:01:17;;;;;;;18.15;11.27;;;;;;;-0.41;100.00;101382.94;5051322;28;20689;-69
2022/03/13 06:03:43;;;;;;;19.85;11.45;;;;;;;-0.18;100.00;101387.16;5052229;28;20059;-71
2022/03/13 06:06:10;;;;;;;33.50;16.13;;;;;;;-0.52;100.00;101381.69;5052521;28;20037;-68
2022/03/13 06:08:36;;;;;;;23.75;13.70;;;;;;;-0.52;100.00;101420.78;5052452;28;20028;-68
2022/03/13 06:11:01;;;;;;;14.82;10.07;;;;;;;-0.31;100.00;101395.00;5052449;28;20470;-69
2022/03/13 06:13:28;;;;;;;15.00;10.05;;;;;;;-0.26;100.00;101395.19;5051936;28;20107;-67
2022/03/13 06:15:54;;;;;;;15.75;10.10;;;;;;;-1.02;100.00;101397.16;5052566;28;20495;-66
2022/03/13 06:18:21;;;;;;;16.75;11.55;;;;;;;-0.26;100.00;101413.50;5052398;28;20040;-66
2022/03/13 06:20:46;;;;;;;22.17;14.35;;;;;;;-0.42;100.00;101416.22;5052296;28;20025;-66
2022/03/13 06:23:13;;;;;;;25.70;17.80;;;;;;;-1.23;100.00;101418.69;5052234;28;20044;-67
2022/03/13 06:25:40;;;;;;;20.83;14.10;;;;;;;-1.04;100.00;101367.94;5052016;28;20423;-66
2022/03/13 06:28:05;;;;;;;18.02;12.70;;;;;;;-1.34;100.00;101387.47;5033974;28;20573;-68
2022/03/13 06:30:31;;;;;;;19.45;13.70;;;;;;;-1.15;100.00;101374.97;5052218;28;20068;-66
2022/03/13 06:32:56;;;;;;;32.53;19.58;;;;;;;-0.35;100.00;101418.16;5051812;28;20037;-66
2022/03/13 06:35:23;;;;;;;26.80;19.23;;;;;;;-1.57;100.00;101420.53;5051800;28;20032;-66
2022/03/13 06:37:50;;;;;;;41.17;27.42;;;;;;;-0.89;100.00;101431.78;5052038;28;20539;-66
2022/03/13 06:40:20;;;;;;;29.95;22.15;;;;;;;-0.41;100.00;101394.59;5051714;28;20029;-66
2022/03/13 06:42:47;;;;;;;20.90;14.35;;;;;;;-0.28;100.00;101369.31;5051808;28;20051;-67
2022/03/13 06:45:13;;;;;;;19.17;13.02;;;;;;;-0.28;100.00;101416.75;5051993;28;20028;-67
2022/03/13 06:47:47;;;;;;;22.58;15.18;;;;;;;-0.14;100.00;101416.47;5051637;28;20028;-64
2022/03/13 06:50:14;;;;;;;52.40;29.48;;;;;;;-0.20;100.00;101396.25;5051659;28;20029;-66
2022/03/13 06:52:40;;;;;;;22.65;15.45;;;;;;;-0.04;100.00;101413.53;5051579;28;20029;-64
2022/03/13 06:55:07;;;;;;;17.13;11.98;;;;;;;0.33;100.00;101403.25;5051550;28;20616;-66
2022/03/13 06:57:32;;;;;;;20.65;12.93;;;;;;;0.47;100.00;101402.09;5051581;28;20035;-66
2022/03/13 06:59:58;;;;;;;17.58;11.48;;;;;;;0.64;100.00;101366.00;5051160;28;20028;-65
2022/03/13 07:02:24;;;;;;;20.70;14.90;;;;;;;1.37;100.00;101391.78;5033387;28;20102;-66
2022/03/13 07:04:49;;;;;;;25.25;15.80;;;;;;;1.89;100.00;101408.44;5051344;28;20159;-65
2022/03/13 07:07:15;;;;;;;31.40;19.55;;;;;;;1.81;100.00;101382.28;5033542;28;20112;-66
2022/03/13 07:09:40;;;;;;;25.25;16.50;;;;;;;2.16;100.00;101377.47;5050929;28;20399;-66
2022/03/13 07:12:11;;;;;;;16.23;11.35;;;;;;;0.63;100.00;101395.97;5051191;28;20029;-65
2022/03/13 07:14:45;;;;;;;18.40;11.67;;;;;;;2.14;100.00;101404.16;5051260;28;20105;-65
2022/03/13 07:17:11;;;;;;;16.70;11.20;;;;;;;3.17;100.00;101382.69;5051120;28;20033;-66
2022/03/13 07:19:36;;;;;;;18.13;12.63;;;;;;;2.47;100.00;101384.22;5050997;28;20518;-69
2022/03/13 07:22:03;;;;;;;20.13;13.63;;;;;;;0.97;100.00;101421.31;5032522;28;20029;-65
2022/03/13 07:24:28;;;;;;;21.40;15.65;;;;;;;2.87;99.89;101416.25;5051324;28;20451;-66
2022/03/13 07:26:54;;;;;;;15.35;11.90;;;;;;;3.58;95.45;101410.47;5050982;28;20072;-65
2022/03/13 07:29:19;;;;;;;14.27;9.45;;;;;;;3.35;92.64;101397.34;5050897;28;20021;-64
2022/03/13 07:31:44;;;;;;;13.48;10.63;;;;;;;4.65;100.00;101388.47;5050992;28;20070;-63
2022/03/13 07:34:10;;;;;;;24.98;15.48;;;;;;;5.34;100.00;101360.22;5051252;28;20036;-63
2022/03/13 07:36:35;;;;;;;14.93;11.13;;;;;;;4.97;89.96;101394.91;5050406;28;20116;-63
2022/03/13 07:39:03;;;;;;;18.65;11.50;;;;;;;3.91;100.00;101381.06;5050704;28;20387;-64
2022/03/13 07:41:28;;;;;;;19.83;14.10;;;;;;;3.77;93.58;101367.31;5050487;28;20505;-64
2022/03/13 07:43:53;;;;;;;12.27;9.80;;;;;;;3.43;91.64;101390.84;5032481;28;20037;-67
2022/03/13 07:46:19;;;;;;;14.98;9.93;;;;;;;2.42;91.68;101390.75;5050657;28;20029;-67
2022/03/13 07:48:45;;;;;;;16.48;11.02;;;;;;;2.96;96.59;101367.09;5050542;28;20120;-66
2022/03/13 07:51:14;;;;;;;11.82;9.25;;;;;;;4.26;90.59;101370.03;5050231;28;20479;-64
2022/03/13 07:53:39;;;;;;;11.57;9.02;;;;;;;3.60;83.51;101341.84;5050884;28;20041;-67
2022/03/13 07:56:05;;;;;;;12.77;9.45;;;;;;;3.40;93.84;101390.81;5050521;28;20025;-65
2022/03/13 07:58:32;;;;;;;15.05;10.65;;;;;;;3.07;87.11;101380.75;5050261;28;20481;-66
2022/03/13 08:00:57;;;;;;;11.65;8.65;;;;;;;3.03;86.68;101394.06;5050508;28;20029;-68
2022/03/13 08:03:25;;;;;;;16.38;10.13;;;;;;;4.75;80.29;101390.31;5050318;28;20044;-66
2022/03/13 08:05:53;;;;;;;12.73;8.82;;;;;;;5.14;74.03;101375.03;5049875;28;20164;-67
2022/03/13 08:08:19;;;;;;;14.23;10.45;;;;;;;5.22;73.85;101379.38;5050734;28;20084;-68
2022/03/13 08:10:44;;;;;;;13.23;10.00;;;;;;;5.70;72.17;101371.72;5050240;28;20495;-66
2022/03/13 08:13:10;;;;;;;15.07;10.38;;;;;;;4.74;70.36;101343.28;5053207;28;20117;-67
2022/03/13 08:15:35;;;;;;;14.50;9.90;;;;;;;3.91;74.67;101353.38;5036531;28;20029;-67
2022/03/13 08:18:01;;;;;;;17.05;10.50;;;;;;;4.43;72.74;101353.63;5054560;28;20089;-68
2022/03/13 08:20:26;;;;;;;15.45;11.00;;;;;;;5.64;70.16;101338.84;5053915;28;20479;-67
2022/03/13 08:22:52;;;;;;;20.92;12.93;;;;;;;7.35;82.06;101356.69;5054304;28;20032;-64
2022/03/13 08:25:19;;;;;;;19.45;14.60;;;;;;;4.90;65.09;101341.88;5054478;28;20024;-67
2022/03/13 08:27:45;;;;;;;15.38;11.98;;;;;;;4.72;69.43;101372.63;5054045;28;20411;-65
2022/03/13 08:30:12;;;;;;;24.20;16.13;;;;;;;5.93;64.70;101370.38;5054184;28;20040;-67
2022/03/13 08:32:38;;;;;;;35.15;20.98;;;;;;;6.23;62.90;101371.59;5054324;28;20033;-67
2022/03/13 08:35:05;;;;;;;12.45;9.77;;;;;;;5.69;63.97;101337.22;5053675;28;20025;-66
2022/03/13 08:37:30;;;;;;;15.40;11.95;;;;;;;4.91;63.22;101344.41;5054189;28;20033;-67
2022/03/13 08:39:56;;;;;;;18.23;12.05;;;;;;;5.10;62.17;101368.25;5054039;28;20021;-67
2022/03/13 08:42:21;;;;;;;18.55;14.00;;;;;;;5.28;60.48;101331.59;5054257;28;20449;-67
2022/03/13 08:44:47;;;;;;;16.40;11.93;;;;;;;4.85;61.89;101363.63;5053849;28;20112;-67
2022/03/13 08:47:12;;;;;;;23.05;13.95;;;;;;;5.70;62.88;101354.06;5053815;28;20052;-67
2022/03/13 08:49:38;;;;;;;32.13;17.98;;;;;;;5.80;62.55;101352.50;5053414;28;20025;-66
2022/03/13 08:52:03;;;;;;;37.97;25.10;;;;;;;5.61;59.44;101374.09;5053869;28;20119;-66
2022/03/13 08:54:29;;;;;;;12.43;8.50;;;;;;;6.06;59.25;101356.25;5053949;28;20036;-69
2022/03/13 08:56:54;;;;;;;18.60;14.25;;;;;;;6.16;57.28;101352.97;5053871;28;20509;-70
2022/03/13 08:59:20;;;;;;;14.68;11.35;;;;;;;5.04;58.52;101308.53;5054102;28;20116;-67
2022/03/13 09:01:47;;;;;;;15.57;10.65;;;;;;;5.20;55.71;101310.47;5053514;28;20021;-67
2022/03/13 09:04:13;;;;;;;13.50;10.15;;;;;;;6.23;56.10;101324.47;5053206;28;20494;-66
2022/03/13 09:06:39;;;;;;;12.38;9.80;;;;;;;5.46;54.88;101331.00;5053609;28;20025;-68
2022/03/13 09:09:06;;;;;;;38.53;24.40;;;;;;;5.78;53.14;101360.06;5053672;28;20119;-67
2022/03/13 09:11:33;;;;;;;22.05;15.93;;;;;;;7.33;63.24;101324.66;5053355;28;20161;-64
2022/03/13 09:13:59;;;;;;;14.32;11.10;;;;;;;6.51;57.48;101323.94;5053464;28;20094;-67
2022/03/13 09:16:26;;;;;;;18.05;11.43;;;;;;;6.16;51.42;101324.38;5053889;28;20041;-67
2022/03/13 09:18:51;;;;;;;8.93;6.90;;;;;;;6.19;50.31;101329.47;5052819;28;20065;-66
2022/03/13 09:21:17;;;;;;;9.57;7.82;;;;;;;5.70;49.42;101345.63;5035384;28;20052;-66
2022/03/13 09:23:42;;;;;;;7.63;6.22;;;;;;;6.55;49.26;101322.28;5052954;28;20497;-65
2022/03/13 09:26:07;;;;;;;8.23;5.55;;;;;;;7.03;47.96;101328.63;5052925;28;20495;-66
2022/03/13 09:28:34;;;;;;;7.03;5.90;;;;;;;7.40;46.74;101333.97;5053171;28;20501;-68
2022/03/13 09:31:00;;;;;;;7.70;5.82;;;;;;;7.41;45.70;101333.09;5053154;28;20036;-68
2022/03/13 09:33:27;;;;;;;7.38;5.85;;;;;;;7.76;43.27;101344.31;5052709;28;20115;-66
2022/03/13 09:35:53;;;;;;;9.50;7.45;;;;;;;8.18;45.03;101303.13;5053102;28;20041;-68
2022/03/13 09:38:18;;;;;;;11.60;6.85;;;;;;;9.37;45.89;101319.31;5053153;28;20033;-69
2022/03/13 09:40:44;;;;;;;14.27;9.30;;;;;;;8.58;43.81;101315.06;5052636;28;20422;-67
2022/03/13 09:43:09;;;;;;;8.93;6.43;;;;;;;7.68;43.97;101305.47;5052779;28;20040;-68
2022/03/13 09:45:35;;;;;;;11.88;8.50;;;;;;;8.70;42.33;101313.41;5052737;28;20483;-67
2022/03/13 09:48:08;;;;;;;7.22;6.00;;;;;;;8.99;42.17;101279.63;5052287;28;20388;-67
2022/03/13 09:50:34;;;;;;;31.35;18.33;;;;;;;8.84;42.81;101265.25;5052975;28;20033;-67
2022/03/13 09:52:59;;;;;;;8.35;6.43;;;;;;;8.56;41.91;101297.34;5052561;28;20115;-67
2022/03/13 09:55:27;;;;;;;17.20;8.63;;;;;;;8.67;42.64;101295.69;5034852;28;20025;-67
2022/03/13 09:57:52;;;;;;;9.93;8.23;;;;;;;9.15;42.69;101293.97;5052742;28;20028;-67
2022/03/13 10:00:25;;;;;;;9.25;7.25;;;;;;;7.94;42.90;101293.78;5052229;28;20423;-67
2022/03/13 10:02:54;;;;;;;7.43;5.55;;;;;;;7.76;42.96;101298.75;5052206;28;20063;-65
2022/03/13 10:05:22;;;;;;;10.07;7.68;;;;;;;9.23;42.85;101246.63;5034388;28;20490;-68
2022/03/13 10:07:53;;;;;;;15.10;11.13;;;;;;;10.31;41.14;101275.81;5052007;28;20090;-69
2022/03/13 10:10:21;;;;;;;12.85;9.90;;;;;;;10.07;41.60;101279.31;5052562;28;20387;-69
2022/03/13 10:12:46;;;;;;;43.10;27.38;;;;;;;9.84;43.05;101243.00;5051999;28;20510;-69
2022/03/13 10:15:13;;;;;;;14.35;9.23;;;;;;;8.51;40.95;101252.56;5051830;28;20061;-69
2022/03/13 10:17:40;;;;;;;37.28;17.75;;;;;;;8.37;41.67;101247.47;5052321;28;20203;-69
2022/03/13 10:20:26;;;;;;;14.20;8.65;;;;;;;8.14;43.25;101260.91;5051654;28;20039;-67
2022/03/13 10:23:00;;;;;;;14.15;9.73;;;;;;;8.27;43.56;101282.91;5051868;28;20086;-69
2022/03/13 10:25:30;;;;;;;18.52;13.85;;;;;;;8.69;43.38;101273.69;5051646;28;20024;-67
2022/03/13 10:28:14;;;;;;;14.45;10.07;;;;;;;9.95;43.51;101273.44;5052030;28;20486;-70
2022/03/13 10:30:41;;;;;;;13.02;9.60;;;;;;;10.38;40.89;101245.25;5052123;28;20046;-70
2022/03/13 10:33:08;;;;;;;15.60;11.35;;;;;;;10.57;40.51;101265.47;5051895;28;20029;-70
2022/03/13 10:35:35;;;;;;;10.88;8.63;;;;;;;9.47;39.71;101242.28;5050977;28;20107;-68
2022/03/13 10:38:00;;;;;;;30.58;18.50;;;;;;;9.40;43.59;101255.88;5051441;28;20037;-65
2022/03/13 10:40:33;;;;;;;12.23;8.65;;;;;;;10.10;41.68;101222.59;5051897;28;20032;-68
2022/03/13 10:43:06;;;;;;;12.10;9.10;;;;;;;10.72;38.52;101242.47;5051342;28;20036;-68
2022/03/13 10:45:43;;;;;;;11.52;8.30;;;;;;;9.76;39.67;101247.28;5051913;28;20071;-68
2022/03/13 10:48:14;;;;;;;16.45;12.05;;;;;;;9.10;41.46;101253.38;5051339;28;20035;-68
2022/03/13 10:50:47;;;;;;;;;;;;;;;8.93;41.97;101244.13;5051650;28;20067;-69
2022/03/13 10:53:13;;;;;;;17.40;12.15;;;;;;;8.60;41.99;101235.66;5033628;28;19936;-69
2022/03/13 10:55:41;;;;;;;13.70;10.95;;;;;;;7.53;41.72;101224.38;5051248;28;20021;-69
2022/03/13 10:58:07;;;;;;;10.48;9.13;;;;;;;8.06;41.96;101234.72;5051318;28;20491;-69
2022/03/13 11:00:32;;;;;;;12.75;9.60;;;;;;;9.09;41.20;101243.25;5051542;28;20033;-68
2022/03/13 11:03:14;;;;;;;11.80;8.50;;;;;;;8.82;40.05;101233.97;5051000;28;20131;-69
2022/03/13 11:05:40;;;;;;;10.65;7.53;;;;;;;9.51;39.88;101228.75;5051330;28;20036;-68
2022/03/13 11:08:07;;;;;;;15.18;10.38;;;;;;;9.92;40.98;101223.50;5051221;28;20045;-66
2022/03/13 11:10:36;;;;;;;11.18;8.43;;;;;;;8.46;41.87;101188.34;5051173;28;20119;-69